Wallingford, CT

6:52 PM EDT on March 29, 2015 (GMT -0400)
Meriden Markham Municipal | | Change Station
CLOSE
Current Station
Airport
Location: Meriden,
Elevation: 102 ft
Nearby Weather Stations

Elev 102 ft 41.51 °N, 72.83 °W | Updated 59 minutes ago

Clear
Clear
43 °F
Feels Like 40 °F
N
6
Wind Variable Wind from West

Today
High -- | Low -- °F
--% Chance of Precip.
Yesterday
High -- | Low -- °F
Precip. -- in
6:39 AM 7:13 PM
Waxing Gibbous, 75% visible
Pressure 30.14 in
Visibility 10.0 miles
Clouds Clear
Windchill 40 °F
Dew Point 5 °F
Humidity 21%
Rainfall 0.00 in
Snow Depth Not available.
UV 1 out of 12
Pollen 4.80 out of 12
Air Quality Not available.
Flu Activity Not available.
METAR KMMK 292153Z AUTO 28005KT 10SM CLR 06/M15 A3014 RMK AO2 SLP207 T00611150 TSNO

More Conditions Fewer Conditions

Pressure 30.14 in
Visibility 10.0 miles
Clouds Clear
Windchill 40 °F
Dew Point 5 °F
Humidity 21%
Rainfall 0.00 in
Snow Depth Not available.
UV 1 out of 12
Pollen 4.80 out of 12
Air Quality Not available.
Flu Activity Not available.
METAR KMMK 292153Z AUTO 28005KT 10SM CLR 06/M15 A3014 RMK AO2 SLP207 T00611150 TSNO

More Conditions Fewer Conditions

10-Day Weather Forecast

Almanac

Astronomy

Mar. 29, 2015 Rise Set
Actual Time
Civil Twilight
Nautical Twilight
Astronomical Twilight
Moon
Length of Visible Light
Length of Day
Tomorrow will be .
, % of the Moon is Illuminated

Today's Extremes

State Highs State Lows

Community

WunderPhotos

Upload Photos

1,809,376 photos uploaded!

WunderBlogs® & News

Nearby

Air Quality

  Air Quality AQ Index Pollutant
Not available.

Snow Depth

Station Depth Elevation

Earthquake Activity

City Distance Mag. Time & Date
Minimum magnitude displayed is 2.5.

Coastal Water Temperatures

Place Temperature

Stations

Nearby Weather Stations

Station Location Temp. Windchill Dew Point Humidity Wind Precip. Elev Updated Type